Embsay, United Kingdom
Current Conditions -  °F | °C
As of 9:20 AM on Sunday 21 Dec 2014 (Local Time) from EGNM Reporting Station
Drizzle Drizzle  
Wind Chill: 37°   Ceiling: 1200
Heat Index: 43°   Visibility: 6mi
Dew Point: 41°   Wind: 9mph
Humidity: 93%   Direction: 210°SSW
Pressure: 30.09"   Gusts: NA
Location:  53.98°N, 1.99°W
Report Text: EGNM 210920Z 21008KT 170V240 9999 -DZ SCT009 BKN012 06/05 Q1019
Loading
Personal Weather Stations






























Interactive Weather Map New forecast layout! Learn more

10-Day Weather Forecast

Advertisements
Track Severe Weather on mobile